Terminal Aerodrome Forecast
Issued by NWS

Home | Current Version | Previous Version | Text Only | Print | Product List | Glossary On
Versions: 1 2 3 4 5 6 7 8 9 10 11 12 13 14
000
FTUS45 KTFX 051738
TAFHLN
TAF
KHLN 051738Z 0518/0618 28010KT P6SM SCT060 BKN100
      TEMPO 0523/0603 VRB20G30KT -TSRA BKN050CB
     FM060300 27010KT P6SM SCT040 BKN070=

USA.gov is the U.S. government's official web portal to all federal, state and local government web resources and services.